Time;durP1;ratioP1;P1;durP2;ratioP2;P2;SDS_P1;SDS_P2;PMS_P1;PMS_P2;Temp;Humidity;BMP_temperature;BMP_pressure;BME280_temperature;BME280_humidity;BME280_pressure;Samples;Min_cycle;Max_cycle;Signal;HPM_P1;HPM_P2
2021/06/11 00:01:36;;;;;;;31.83;11.47;;;;;;;;;;5052586;28;20435;-55
2021/06/11 00:04:43;;;;;;;11.40;6.23;;;;;;;;;;5037889;28;20459;-55
2021/06/11 00:07:13;;;;;;;19.20;9.70;;;;;;;;;;5065478;28;20485;-50
2021/06/11 00:09:47;;;;;;;13.47;7.47;;;;;;;;;;5077277;28;20457;-56
2021/06/11 00:12:16;;;;;;;77.53;17.60;;;;;;;;;;5077276;28;20473;-59
2021/06/11 00:14:47;;;;;;;20.53;9.87;;;;;;;;;;5071702;28;20707;-57
2021/06/11 00:17:18;;;;;;;33.63;26.73;;;;;;;;;;5074256;28;20457;-59
2021/06/11 00:19:45;;;;;;;16.30;5.80;;;;;;;;;;5076735;28;20528;-56
2021/06/11 00:22:13;;;;;;;8.30;5.00;;;;;;;;;;5064317;28;20468;-54
2021/06/11 00:24:41;;;;;;;10.90;5.97;;;;;;;;;;5056945;28;20461;-59
2021/06/11 00:27:10;;;;;;;8.70;6.07;;;;;;;;;;5066414;28;20462;-59
2021/06/11 00:29:37;;;;;;;7.83;5.53;;;;;;;;;;5068167;28;20438;-54
2021/06/11 00:32:18;;;;;;;10.07;6.40;;;;;;;;;;5061512;28;21034;-57
2021/06/11 00:34:45;;;;;;;11.90;6.97;;;;;;;;;;5055852;28;20465;-61
2021/06/11 00:37:13;;;;;;;7.90;6.10;;;;;;;;;;5055622;28;20458;-58
2021/06/11 00:39:40;;;;;;;10.83;6.67;;;;;;;;;;5066933;28;20453;-58
2021/06/11 00:42:09;;;;;;;8.27;6.00;;;;;;;;;;5075521;28;20464;-56
2021/06/11 00:44:53;;;;;;;13.57;9.83;;;;;;;;;;5060988;28;20465;-58
2021/06/11 00:47:20;;;;;;;14.03;9.47;;;;;;;;;;5056222;28;20453;-49
2021/06/11 00:49:48;;;;;;;10.80;7.40;;;;;;;;;;5055828;28;20457;-60
2021/06/11 00:55:20;;;;;;;8.97;5.67;;;;;;;;;;5055079;28;20624;-58
2021/06/11 00:57:47;;;;;;;8.57;6.27;;;;;;;;;;5063365;28;20668;-57
2021/06/11 01:00:26;;;;;;;11.23;5.90;;;;;;;;;;5058217;28;20466;-60
2021/06/11 01:02:53;;;;;;;11.17;9.23;;;;;;;;;;5065917;28;20496;-55
2021/06/11 01:05:20;;;;;;;11.43;7.57;;;;;;;;;;5072441;28;20875;-56
2021/06/11 01:08:22;;;;;;;9.53;6.00;;;;;;;;;;5055849;28;20468;-51
2021/06/11 01:10:51;;;;;;;11.10;7.40;;;;;;;;;;5055590;28;20441;-58
2021/06/11 01:13:18;;;;;;;8.30;6.93;;;;;;;;;;5067996;28;20469;-55
2021/06/11 01:16:09;;;;;;;10.20;7.73;;;;;;;;;;5075684;28;20452;-55
2021/06/11 01:18:36;;;;;;;11.27;6.70;;;;;;;;;;5074239;28;20488;-54
2021/06/11 01:21:04;;;;;;;8.10;6.13;;;;;;;;;;5067969;28;20552;-56
2021/06/11 01:23:45;;;;;;;9.30;6.07;;;;;;;;;;5056670;28;20446;-57
2021/06/11 01:26:28;;;;;;;9.80;6.67;;;;;;;;;;5075648;28;20465;-55
2021/06/11 01:28:56;;;;;;;8.83;7.00;;;;;;;;;;5074944;28;20479;-59
2021/06/11 01:31:29;;;;;;;8.53;6.77;;;;;;;;;;5075098;28;20495;-56
2021/06/11 01:33:58;;;;;;;9.10;6.70;;;;;;;;;;5075077;28;20473;-51
2021/06/11 01:36:25;;;;;;;7.07;5.73;;;;;;;;;;5069784;28;20441;-58
2021/06/11 01:39:15;;;;;;;8.17;6.33;;;;;;;;;;5074887;28;20468;-53
2021/06/11 01:41:43;;;;;;;11.60;7.13;;;;;;;;;;5063884;28;20472;-60
2021/06/11 01:44:11;;;;;;;11.30;6.60;;;;;;;;;;5056867;28;20466;-56
2021/06/11 01:46:45;;;;;;;8.00;6.53;;;;;;;;;;5055809;28;20445;-54
2021/06/11 01:49:13;;;;;;;11.93;7.73;;;;;;;;;;5055329;28;20453;-56
2021/06/11 01:51:40;;;;;;;10.70;7.97;;;;;;;;;;5067765;28;20567;-54
2021/06/11 01:57:12;;;;;;;12.03;8.60;;;;;;;;;;5071594;28;20441;-54
2021/06/11 01:59:39;;;;;;;19.10;11.80;;;;;;;;;;5060741;28;20453;-51
2021/06/11 02:02:07;;;;;;;20.40;11.77;;;;;;;;;;5057142;28;20481;-54
2021/06/11 02:04:35;;;;;;;12.13;7.97;;;;;;;;;;5075327;28;20457;-55
2021/06/11 02:07:09;;;;;;;7.73;6.30;;;;;;;;;;5075585;28;20429;-59
2021/06/11 02:09:37;;;;;;;8.00;6.13;;;;;;;;;;5075345;28;20459;-54
2021/06/11 02:12:04;;;;;;;9.23;6.40;;;;;;;;;;5062991;28;20469;-52
2021/06/11 02:14:46;;;;;;;20.23;6.97;;;;;;;;;;5078406;28;20460;-54
2021/06/11 02:17:13;;;;;;;7.87;6.33;;;;;;;;;;5072841;28;20497;-60
2021/06/11 02:19:40;;;;;;;7.80;6.37;;;;;;;;;;5063182;28;20503;-60
2021/06/11 02:22:15;;;;;;;7.80;5.83;;;;;;;;;;5058723;28;20473;-57
2021/06/11 02:24:42;;;;;;;8.33;6.73;;;;;;;;;;5068777;28;20528;-56
2021/06/11 02:27:09;;;;;;;8.50;6.43;;;;;;;;;;5074920;28;20502;-54
2021/06/11 02:29:48;;;;;;;8.07;6.73;;;;;;;;;;5075412;28;20448;-55
2021/06/11 02:32:14;;;;;;;8.57;7.30;;;;;;;;;;5060498;28;20486;-59
2021/06/11 02:34:41;;;;;;;9.13;6.40;;;;;;;;;;5058190;28;20464;-56
2021/06/11 02:37:14;;;;;;;13.27;7.43;;;;;;;;;;5058715;28;20521;-58
2021/06/11 02:39:40;;;;;;;8.20;7.10;;;;;;;;;;5067091;28;20457;-54
2021/06/11 02:42:09;;;;;;;10.50;7.03;;;;;;;;;;5077446;28;20462;-53
2021/06/11 02:44:48;;;;;;;9.43;7.37;;;;;;;;;;5070383;28;20468;-59
2021/06/11 02:47:18;;;;;;;11.60;7.63;;;;;;;;;;5077284;28;20571;-55
2021/06/11 02:49:47;;;;;;;9.57;7.50;;;;;;;;;;5066384;28;20492;-57
2021/06/11 02:52:22;;;;;;;13.03;7.53;;;;;;;;;;5066111;28;20491;-56
2021/06/11 02:54:51;;;;;;;14.47;8.07;;;;;;;;;;5077685;28;20455;-53
2021/06/11 02:57:20;;;;;;;11.20;7.53;;;;;;;;;;5063498;28;20430;-59
2021/06/11 03:00:05;;;;;;;12.60;6.70;;;;;;;;;;5057196;28;20445;-56
2021/06/11 03:02:36;;;;;;;11.27;8.63;;;;;;;;;;5057540;28;20549;-56
2021/06/11 03:05:03;;;;;;;11.10;8.30;;;;;;;;;;5070705;28;20453;-57
2021/06/11 03:07:33;;;;;;;10.30;8.20;;;;;;;;;;5077331;28;20453;-59
2021/06/11 03:10:02;;;;;;;11.60;7.90;;;;;;;;;;5059118;28;20485;-58
2021/06/11 03:12:55;;;;;;;10.53;7.90;;;;;;;;;;5057364;28;20501;-53
2021/06/11 03:15:22;;;;;;;13.33;8.23;;;;;;;;;;5057219;28;20518;-59
2021/06/11 03:17:53;;;;;;;9.90;7.13;;;;;;;;;;5062099;28;20460;-58
2021/06/11 03:20:22;;;;;;;9.00;7.00;;;;;;;;;;5068993;28;20454;-57
2021/06/11 03:22:52;;;;;;;9.17;6.93;;;;;;;;;;5056682;28;20464;-56
2021/06/11 03:25:22;;;;;;;10.10;7.30;;;;;;;;;;5066254;28;20579;-54
2021/06/11 03:27:52;;;;;;;9.77;7.60;;;;;;;;;;5078017;28;20456;-55
2021/06/11 03:30:42;;;;;;;10.10;7.23;;;;;;;;;;5076291;28;20467;-53
2021/06/11 03:33:12;;;;;;;14.20;7.53;;;;;;;;;;5065834;28;20592;-58
2021/06/11 03:35:43;;;;;;;11.70;8.77;;;;;;;;;;5074159;28;20457;-56
2021/06/11 03:38:21;;;;;;;9.50;7.40;;;;;;;;;;5072129;28;20465;-56
2021/06/11 03:40:49;;;;;;;11.23;9.37;;;;;;;;;;5051800;28;20477;-59
2021/06/11 03:43:17;;;;;;;12.17;7.57;;;;;;;;;;5043512;28;20674;-56
2021/06/11 03:45:44;;;;;;;17.53;7.97;;;;;;;;;;5045188;28;20460;-54
2021/06/11 03:48:15;;;;;;;8.00;6.90;;;;;;;;;;5056662;28;20465;-52
2021/06/11 03:50:42;;;;;;;11.50;7.10;;;;;;;;;;5043393;28;20476;-60
2021/06/11 03:53:14;;;;;;;11.30;7.57;;;;;;;;;;5056122;28;20473;-56
2021/06/11 03:55:42;;;;;;;14.27;7.57;;;;;;;;;;5056438;28;20454;-54
2021/06/11 03:58:12;;;;;;;15.37;7.40;;;;;;;;;;5056216;28;20529;-53
2021/06/11 04:00:59;;;;;;;9.17;6.90;;;;;;;;;;5050677;28;20878;-55
2021/06/11 04:03:27;;;;;;;11.13;7.87;;;;;;;;;;5036370;28;20470;-56
2021/06/11 04:06:09;;;;;;;8.30;7.00;;;;;;;;;;5051744;28;20504;-56
2021/06/11 04:08:59;;;;;;;9.50;7.10;;;;;;;;;;5039488;28;20461;-58
2021/06/11 04:11:28;;;;;;;9.73;7.87;;;;;;;;;;5055390;28;20450;-56
2021/06/11 04:13:56;;;;;;;15.37;8.30;;;;;;;;;;5052264;28;20479;-59
2021/06/11 04:16:35;;;;;;;14.83;7.57;;;;;;;;;;5036505;28;20463;-52
2021/06/11 04:19:03;;;;;;;9.70;7.20;;;;;;;;;;5036401;28;20507;-51
2021/06/11 04:21:32;;;;;;;11.60;8.07;;;;;;;;;;5052436;28;20446;-54
2021/06/11 04:24:00;;;;;;;10.80;7.53;;;;;;;;;;5037463;28;20458;-58
2021/06/11 04:26:28;;;;;;;9.90;7.50;;;;;;;;;;5036196;28;20439;-55
2021/06/11 04:29:09;;;;;;;8.73;6.90;;;;;;;;;;5053968;28;20476;-57
2021/06/11 04:31:36;;;;;;;10.30;7.43;;;;;;;;;;5043295;28;20454;-59
2021/06/11 04:34:09;;;;;;;9.83;7.67;;;;;;;;;;5052413;28;20556;-55
2021/06/11 04:39:40;;;;;;;8.33;6.63;;;;;;;;;;5069450;28;20470;-49
2021/06/11 04:42:08;;;;;;;11.53;6.80;;;;;;;;;;5060809;28;20476;-52
2021/06/11 04:44:52;;;;;;;15.13;8.57;;;;;;;;;;5056888;28;20521;-58
2021/06/11 04:47:19;;;;;;;9.77;8.20;;;;;;;;;;5071192;28;20495;-57
2021/06/11 04:49:47;;;;;;;12.10;8.97;;;;;;;;;;5065964;28;20445;-59
2021/06/11 04:52:33;;;;;;;10.10;6.90;;;;;;;;;;5055400;28;20500;-59
2021/06/11 04:55:00;;;;;;;7.73;5.80;;;;;;;;;;5073264;28;20488;-55
2021/06/11 04:57:27;;;;;;;12.67;7.67;;;;;;;;;;5070514;28;20857;-55
2021/06/11 05:02:58;;;;;;;9.37;7.67;;;;;;;;;;5062744;28;20464;-56
2021/06/11 05:05:28;;;;;;;8.27;7.47;;;;;;;;;;5061255;28;20502;-61
2021/06/11 05:07:56;;;;;;;9.80;7.50;;;;;;;;;;5060246;28;20469;-59
2021/06/11 05:10:23;;;;;;;13.27;9.27;;;;;;;;;;5064922;28;20461;-55
2021/06/11 05:12:51;;;;;;;9.27;7.23;;;;;;;;;;5075009;28;20471;-60
2021/06/11 05:15:42;;;;;;;10.03;7.40;;;;;;;;;;5072154;28;20489;-61
2021/06/11 05:18:16;;;;;;;9.67;7.80;;;;;;;;;;5054623;28;20453;-53
2021/06/11 05:20:50;;;;;;;11.90;8.20;;;;;;;;;;5069940;28;20450;-57
2021/06/11 05:23:38;;;;;;;11.73;7.30;;;;;;;;;;5053557;28;20472;-61
2021/06/11 05:26:05;;;;;;;12.53;7.80;;;;;;;;;;5068056;28;20516;-54
2021/06/11 05:28:41;;;;;;;11.90;7.47;;;;;;;;;;5074243;28;20512;-61
2021/06/11 05:31:27;;;;;;;12.07;8.67;;;;;;;;;;5069147;28;20473;-58
2021/06/11 05:33:55;;;;;;;15.20;8.50;;;;;;;;;;5055217;28;20489;-58
2021/06/11 05:36:46;;;;;;;10.30;8.63;;;;;;;;;;5068610;28;20453;-57
2021/06/11 05:39:24;;;;;;;13.23;8.20;;;;;;;;;;5063177;28;20548;-56
2021/06/11 05:41:52;;;;;;;13.10;8.30;;;;;;;;;;5073765;28;20475;-60
2021/06/11 05:44:44;;;;;;;13.20;9.50;;;;;;;;;;5067218;28;20423;-58
2021/06/11 05:47:34;;;;;;;17.43;8.70;;;;;;;;;;5069378;28;20464;-56
2021/06/11 05:50:33;;;;;;;10.63;7.60;;;;;;;;;;5074995;28;20524;-60
2021/06/11 05:53:04;;;;;;;12.63;8.80;;;;;;;;;;5072962;28;20549;-56
2021/06/11 05:55:33;;;;;;;12.30;9.20;;;;;;;;;;5057885;28;20468;-58
2021/06/11 06:01:06;;;;;;;13.27;9.10;;;;;;;;;;5066609;28;20870;-58
2021/06/11 06:03:33;;;;;;;14.93;9.50;;;;;;;;;;5062374;28;20453;-60
2021/06/11 06:06:03;;;;;;;14.10;10.60;;;;;;;;;;5060998;28;20558;-59
2021/06/11 06:08:32;;;;;;;15.40;11.00;;;;;;;;;;5067902;28;20479;-60
2021/06/11 06:10:59;;;;;;;18.87;10.63;;;;;;;;;;5065418;28;20536;-56
2021/06/11 06:13:49;;;;;;;15.93;11.03;;;;;;;;;;5070549;28;20465;-56
2021/06/11 06:16:22;;;;;;;14.40;10.77;;;;;;;;;;5065803;28;20449;-61
2021/06/11 06:18:50;;;;;;;14.70;10.10;;;;;;;;;;5068695;28;20449;-61
2021/06/11 06:21:43;;;;;;;15.50;10.57;;;;;;;;;;5077650;28;20440;-58
2021/06/11 06:24:12;;;;;;;12.40;9.30;;;;;;;;;;5075219;28;20485;-61
2021/06/11 06:26:38;;;;;;;11.80;10.03;;;;;;;;;;5065249;28;20491;-58
2021/06/11 06:29:05;;;;;;;13.63;10.77;;;;;;;;;;5059926;28;20464;-57
2021/06/11 06:32:03;;;;;;;15.70;10.70;;;;;;;;;;5067295;28;20873;-61
2021/06/11 06:34:35;;;;;;;17.93;11.53;;;;;;;;;;5062983;28;20497;-60
2021/06/11 06:37:02;;;;;;;14.53;10.97;;;;;;;;;;5056849;28;20512;-61
2021/06/11 06:39:39;;;;;;;16.10;12.07;;;;;;;;;;5061267;28;20438;-61
2021/06/11 06:42:08;;;;;;;18.30;12.80;;;;;;;;;;5056609;28;20457;-54
2021/06/11 06:44:36;;;;;;;17.93;13.20;;;;;;;;;;5055638;28;20454;-54
2021/06/11 06:47:05;;;;;;;27.03;13.40;;;;;;;;;;5071022;28;20453;-62
2021/06/11 06:52:36;;;;;;;15.47;12.70;;;;;;;;;;5067406;28;20494;-56
2021/06/11 06:55:12;;;;;;;18.60;12.97;;;;;;;;;;5061131;28;20465;-57
2021/06/11 06:57:47;;;;;;;19.63;13.23;;;;;;;;;;5059328;28;20457;-58
2021/06/11 07:00:16;;;;;;;18.97;13.13;;;;;;;;;;5071576;28;20507;-61
2021/06/11 07:02:43;;;;;;;15.40;12.03;;;;;;;;;;5057761;28;20462;-57
2021/06/11 07:05:10;;;;;;;18.57;14.23;;;;;;;;;;5056444;28;20468;-55
2021/06/11 07:07:39;;;;;;;15.10;11.93;;;;;;;;;;5076290;28;20618;-61
2021/06/11 07:10:17;;;;;;;15.93;13.03;;;;;;;;;;5076446;28;20493;-60
2021/06/11 07:12:44;;;;;;;18.20;13.73;;;;;;;;;;5061510;28;20453;-60
2021/06/11 07:15:11;;;;;;;15.33;12.47;;;;;;;;;;5062879;28;20442;-60
2021/06/11 07:18:01;;;;;;;17.00;12.50;;;;;;;;;;5061086;28;20519;-59
2021/06/11 07:20:28;;;;;;;25.97;13.90;;;;;;;;;;5069721;28;20508;-59
2021/06/11 07:22:55;;;;;;;18.20;14.63;;;;;;;;;;5071617;28;20445;-59
2021/06/11 07:25:34;;;;;;;22.07;13.80;;;;;;;;;;5063364;28;20449;-58
2021/06/11 07:28:00;;;;;;;20.00;15.07;;;;;;;;;;5057376;28;20560;-59
2021/06/11 07:30:28;;;;;;;21.83;16.20;;;;;;;;;;5057200;28;20472;-60
2021/06/11 07:32:55;;;;;;;18.97;16.63;;;;;;;;;;5079381;28;20483;-59
2021/06/11 07:35:22;;;;;;;17.90;15.97;;;;;;;;;;5083137;28;20448;-59
2021/06/11 07:38:15;;;;;;;19.77;16.10;;;;;;;;;;5065332;28;20445;-62
2021/06/11 07:40:46;;;;;;;24.33;14.83;;;;;;;;;;5072506;28;20437;-61
2021/06/11 07:43:12;;;;;;;18.50;14.90;;;;;;;;;;5065581;28;20461;-59
2021/06/11 07:45:46;;;;;;;19.30;15.90;;;;;;;;;;5072220;28;20446;-56
2021/06/11 07:48:13;;;;;;;18.33;14.43;;;;;;;;;;5066178;28;20491;-61
2021/06/11 07:50:40;;;;;;;22.00;14.20;;;;;;;;;;5063655;28;20430;-57
2021/06/11 07:53:12;;;;;;;19.17;14.80;;;;;;;;;;5065957;28;20545;-56
2021/06/11 07:55:40;;;;;;;18.30;14.90;;;;;;;;;;5060609;28;20450;-58
2021/06/11 07:58:08;;;;;;;20.10;13.90;;;;;;;;;;5064438;28;20491;-55
2021/06/11 08:00:49;;;;;;;19.57;15.53;;;;;;;;;;5069697;28;20442;-57
2021/06/11 08:03:16;;;;;;;18.87;13.43;;;;;;;;;;5060681;28;20490;-56
2021/06/11 08:05:44;;;;;;;23.60;14.23;;;;;;;;;;5057561;28;20516;-60
2021/06/11 08:08:11;;;;;;;16.93;14.90;;;;;;;;;;5066958;28;20453;-59
2021/06/11 08:10:38;;;;;;;17.60;13.67;;;;;;;;;;5064205;28;20451;-60
2021/06/11 08:13:09;;;;;;;18.27;14.27;;;;;;;;;;5056318;28;20545;-61
2021/06/11 08:15:41;;;;;;;19.00;15.33;;;;;;;;;;5067757;28;20437;-56
2021/06/11 08:18:14;;;;;;;18.40;13.80;;;;;;;;;;5072009;28;20476;-46
2021/06/11 08:21:04;;;;;;;17.80;13.77;;;;;;;;;;5069571;28;20455;-58
2021/06/11 08:23:33;;;;;;;20.60;15.17;;;;;;;;;;5071213;28;20458;-59
2021/06/11 08:26:01;;;;;;;19.93;14.40;;;;;;;;;;5063084;28;20445;-60
2021/06/11 08:28:40;;;;;;;20.43;13.30;;;;;;;;;;5072878;28;20456;-60
2021/06/11 08:31:09;;;;;;;19.73;14.93;;;;;;;;;;5067347;28;20507;-62
2021/06/11 08:33:50;;;;;;;17.60;13.50;;;;;;;;;;5053834;28;20470;-62
2021/06/11 08:36:29;;;;;;;22.80;14.57;;;;;;;;;;5061124;28;20461;-57
2021/06/11 08:38:56;;;;;;;19.47;15.00;;;;;;;;;;5070108;28;20484;-61
2021/06/11 08:41:23;;;;;;;21.80;14.13;;;;;;;;;;5072799;28;20560;-60
2021/06/11 08:44:11;;;;;;;17.00;13.27;;;;;;;;;;5058394;28;20465;-60
2021/06/11 08:46:50;;;;;;;16.80;14.07;;;;;;;;;;5064812;28;20453;-58
2021/06/11 08:49:18;;;;;;;16.30;14.10;;;;;;;;;;5071979;28;20456;-58
2021/06/11 08:52:02;;;;;;;19.87;14.53;;;;;;;;;;5072519;28;20627;-61
2021/06/11 08:54:29;;;;;;;22.63;14.47;;;;;;;;;;5061727;28;20531;-55
2021/06/11 08:57:08;;;;;;;20.23;15.80;;;;;;;;;;5051762;28;20457;-56
2021/06/11 08:59:38;;;;;;;14.87;12.00;;;;;;;;;;5061585;28;20468;-55
2021/06/11 09:02:14;;;;;;;24.87;16.23;;;;;;;;;;5063845;28;20541;-59
2021/06/11 09:04:47;;;;;;;18.80;15.83;;;;;;;;;;5052979;28;20461;-63
2021/06/11 09:07:28;;;;;;;19.10;15.10;;;;;;;;;;5067005;28;20465;-57
2021/06/11 09:10:05;;;;;;;19.63;15.33;;;;;;;;;;5063334;28;20485;-56
2021/06/11 09:12:33;;;;;;;21.87;14.60;;;;;;;;;;5068384;28;20465;-61
2021/06/11 09:15:01;;;;;;;18.00;13.63;;;;;;;;;;5059850;28;20476;-58
2021/06/11 09:17:39;;;;;;;19.00;14.60;;;;;;;;;;5065462;28;20519;-57
2021/06/11 09:20:11;;;;;;;19.33;15.00;;;;;;;;;;5056020;28;20491;-58
2021/06/11 09:22:42;;;;;;;25.53;17.60;;;;;;;;;;5074383;28;20496;-58
2021/06/11 09:25:41;;;;;;;20.07;14.70;;;;;;;;;;5066777;28;20422;-62
2021/06/11 09:28:08;;;;;;;20.10;15.97;;;;;;;;;;5057000;28;20766;-60
2021/06/11 09:30:47;;;;;;;24.83;15.90;;;;;;;;;;5067163;28;20468;-61
2021/06/11 09:33:50;;;;;;;21.50;16.00;;;;;;;;;;5076129;28;20492;-58
2021/06/11 09:36:18;;;;;;;18.73;16.37;;;;;;;;;;5057585;28;20429;-56
2021/06/11 09:38:47;;;;;;;19.03;15.37;;;;;;;;;;5057718;28;20454;-58
2021/06/11 09:41:18;;;;;;;19.50;13.90;;;;;;;;;;5057367;28;20536;-61
2021/06/11 09:43:57;;;;;;;22.20;17.63;;;;;;;;;;5058435;28;20449;-60
2021/06/11 09:46:25;;;;;;;19.07;13.60;;;;;;;;;;5067494;28;20531;-59
2021/06/11 09:48:59;;;;;;;18.27;16.13;;;;;;;;;;5075051;28;20482;-60
2021/06/11 09:51:28;;;;;;;21.97;15.40;;;;;;;;;;5057848;28;20468;-61
2021/06/11 09:54:24;;;;;;;18.53;14.73;;;;;;;;;;5056922;28;20477;-59
2021/06/11 09:56:56;;;;;;;20.33;15.03;;;;;;;;;;5066345;28;20441;-58
2021/06/11 09:59:54;;;;;;;22.27;16.87;;;;;;;;;;5061393;28;20453;-63
2021/06/11 10:02:24;;;;;;;22.47;15.37;;;;;;;;;;5068578;28;20561;-60
2021/06/11 10:04:51;;;;;;;19.50;12.93;;;;;;;;;;5065758;28;20441;-62
2021/06/11 10:07:43;;;;;;;21.43;15.33;;;;;;;;;;5057847;28;20492;-54
2021/06/11 10:10:15;;;;;;;27.03;17.40;;;;;;;;;;5077451;28;20497;-60
2021/06/11 10:12:42;;;;;;;17.93;13.33;;;;;;;;;;5069863;28;20458;-59
2021/06/11 10:15:20;;;;;;;17.80;14.47;;;;;;;;;;5060406;28;20472;-60
2021/06/11 10:17:47;;;;;;;20.97;15.30;;;;;;;;;;5071787;28;20469;-52
2021/06/11 10:20:15;;;;;;;19.20;13.00;;;;;;;;;;5073881;28;20495;-58
2021/06/11 10:23:01;;;;;;;16.53;14.23;;;;;;;;;;5075989;28;20480;-54
2021/06/11 10:25:30;;;;;;;16.87;14.93;;;;;;;;;;5069629;28;20551;-56
2021/06/11 10:27:58;;;;;;;20.50;14.90;;;;;;;;;;5068187;28;20454;-55
2021/06/11 10:30:48;;;;;;;21.37;15.47;;;;;;;;;;5070982;28;20465;-56
2021/06/11 10:33:15;;;;;;;18.47;13.00;;;;;;;;;;5068434;28;20477;-55
2021/06/11 10:35:48;;;;;;;17.63;13.50;;;;;;;;;;5070929;28;20461;-59
2021/06/11 10:38:36;;;;;;;18.20;12.93;;;;;;;;;;5055815;28;20450;-61
2021/06/11 10:41:04;;;;;;;13.93;11.20;;;;;;;;;;5054622;28;20511;-61
2021/06/11 10:43:35;;;;;;;14.80;11.37;;;;;;;;;;5063711;28;20465;-61
2021/06/11 10:46:21;;;;;;;14.00;12.17;;;;;;;;;;5058072;28;20649;-55
2021/06/11 10:49:03;;;;;;;14.10;11.60;;;;;;;;;;5067782;28;20494;-58
2021/06/11 10:51:40;;;;;;;14.27;11.70;;;;;;;;;;5055067;28;20438;-57
2021/06/11 10:54:25;;;;;;;13.83;8.97;;;;;;;;;;5071324;28;20520;-61
2021/06/11 10:57:11;;;;;;;13.23;6.50;;;;;;;;;;5073637;28;20452;-60
2021/06/11 10:59:43;;;;;;;8.77;5.83;;;;;;;;;;5052660;28;20483;-59
2021/06/11 11:02:33;;;;;;;14.33;9.40;;;;;;;;;;5075067;28;21209;-60
2021/06/11 11:05:00;;;;;;;12.33;8.90;;;;;;;;;;5055658;28;20465;-56
2021/06/11 11:07:36;;;;;;;22.10;10.20;;;;;;;;;;5072074;28;20469;-59
2021/06/11 11:10:13;;;;;;;13.93;6.97;;;;;;;;;;5063594;28;20456;-60
2021/06/11 11:12:56;;;;;;;12.13;6.90;;;;;;;;;;5069190;28;20457;-62
2021/06/11 11:15:37;;;;;;;10.20;7.40;;;;;;;;;;5061566;28;20488;-58
2021/06/11 11:18:05;;;;;;;12.33;6.10;;;;;;;;;;5067870;28;20462;-61
2021/06/11 11:20:34;;;;;;;9.00;6.27;;;;;;;;;;5058170;28;20453;-62
2021/06/11 11:23:25;;;;;;;12.17;6.90;;;;;;;;;;5054627;28;20462;-62
2021/06/11 11:26:00;;;;;;;10.87;6.37;;;;;;;;;;5062962;28;20464;-60
2021/06/11 11:28:41;;;;;;;7.13;5.23;;;;;;;;;;5063236;28;20461;-54
2021/06/11 11:31:27;;;;;;;9.70;6.13;;;;;;;;;;5057624;28;20504;-59
2021/06/11 11:34:14;;;;;;;8.93;5.60;;;;;;;;;;5068760;28;20497;-61
2021/06/11 11:36:42;;;;;;;7.30;5.63;;;;;;;;;;5068603;28;20458;-58
2021/06/11 11:42:13;;;;;;;7.20;4.60;;;;;;;;;;5057062;28;21155;-61
2021/06/11 11:44:40;;;;;;;10.30;6.63;;;;;;;;;;5066881;28;20504;-58
2021/06/11 11:47:16;;;;;;;9.50;7.00;;;;;;;;;;5073989;28;20445;-63
2021/06/11 11:49:43;;;;;;;12.60;7.37;;;;;;;;;;5065321;28;20488;-59
2021/06/11 11:52:12;;;;;;;7.57;5.53;;;;;;;;;;5060166;28;20489;-60
2021/06/11 11:54:46;;;;;;;8.00;6.10;;;;;;;;;;5074662;28;20491;-57
2021/06/11 11:57:17;;;;;;;13.60;7.03;;;;;;;;;;5064875;28;20520;-60
2021/06/11 11:59:51;;;;;;;8.03;6.17;;;;;;;;;;5055679;28;20505;-62
2021/06/11 12:02:21;;;;;;;11.17;6.00;;;;;;;;;;5055653;28;20458;-60
2021/06/11 12:04:49;;;;;;;8.00;5.20;;;;;;;;;;5064006;28;20468;-57
2021/06/11 12:07:38;;;;;;;6.73;4.63;;;;;;;;;;5057966;28;20508;-57
2021/06/11 12:10:07;;;;;;;12.70;6.67;;;;;;;;;;5056571;28;20490;-58
2021/06/11 12:12:41;;;;;;;9.20;6.50;;;;;;;;;;5058234;28;20448;-62
2021/06/11 12:15:24;;;;;;;8.77;5.70;;;;;;;;;;5053316;28;20494;-60
2021/06/11 12:17:51;;;;;;;6.70;5.80;;;;;;;;;;5052461;28;20474;-58
2021/06/11 12:20:19;;;;;;;7.90;5.20;;;;;;;;;;5051958;28;20466;-61
2021/06/11 12:22:56;;;;;;;9.60;6.13;;;;;;;;;;5059266;28;20457;-57
2021/06/11 12:25:26;;;;;;;7.73;5.23;;;;;;;;;;5062869;28;20464;-57
2021/06/11 12:27:55;;;;;;;7.60;5.23;;;;;;;;;;5057109;28;20547;-62
2021/06/11 12:30:24;;;;;;;7.70;5.20;;;;;;;;;;5061191;28;20454;-59
2021/06/11 12:32:56;;;;;;;8.90;5.80;;;;;;;;;;5055573;28;20489;-58
2021/06/11 12:35:23;;;;;;;13.00;7.33;;;;;;;;;;5048066;28;20596;-55
2021/06/11 12:37:55;;;;;;;8.40;5.17;;;;;;;;;;5056546;28;20453;-61
2021/06/11 12:40:22;;;;;;;7.53;5.60;;;;;;;;;;5059288;28;20449;-61
2021/06/11 12:42:53;;;;;;;11.90;5.33;;;;;;;;;;5053789;28;20442;-62
2021/06/11 12:45:32;;;;;;;17.43;7.20;;;;;;;;;;5057138;28;20536;-59
2021/06/11 12:48:03;;;;;;;10.80;6.00;;;;;;;;;;5048242;28;20442;-64
2021/06/11 12:50:30;;;;;;;16.23;7.20;;;;;;;;;;5057194;28;20461;-57
2021/06/11 12:53:00;;;;;;;9.10;5.20;;;;;;;;;;5053958;28;20457;-61
2021/06/11 12:55:27;;;;;;;9.20;6.10;;;;;;;;;;5066495;28;20473;-61
2021/06/11 12:57:58;;;;;;;11.50;6.77;;;;;;;;;;5054627;28;20461;-61
2021/06/11 13:00:29;;;;;;;8.47;6.40;;;;;;;;;;5050639;28;20493;-56
2021/06/11 13:02:57;;;;;;;8.83;6.20;;;;;;;;;;5062250;28;20495;-63
2021/06/11 13:05:27;;;;;;;9.03;6.43;;;;;;;;;;5055283;28;20473;-56
2021/06/11 13:07:57;;;;;;;13.23;6.87;;;;;;;;;;5053171;28;20472;-59
2021/06/11 13:10:28;;;;;;;8.90;6.40;;;;;;;;;;5054453;28;20472;-57
2021/06/11 13:13:01;;;;;;;11.13;5.60;;;;;;;;;;5056674;28;20450;-62
2021/06/11 13:18:34;;;;;;;12.93;7.00;;;;;;;;;;5057485;28;20588;-58
2021/06/11 13:21:02;;;;;;;7.33;6.00;;;;;;;;;;5054776;28;20462;-57
2021/06/11 13:23:30;;;;;;;7.37;5.40;;;;;;;;;;5062176;28;20453;-59
2021/06/11 13:25:57;;;;;;;10.00;5.77;;;;;;;;;;5062918;28;20540;-59
2021/06/11 13:28:25;;;;;;;8.67;5.80;;;;;;;;;;5060287;28;20445;-61
2021/06/11 13:31:07;;;;;;;9.07;5.00;;;;;;;;;;5071911;28;20460;-58
2021/06/11 13:33:43;;;;;;;11.03;5.30;;;;;;;;;;5059069;28;21078;-60
2021/06/11 13:36:11;;;;;;;9.30;6.10;;;;;;;;;;5062692;28;20471;-58
2021/06/11 13:38:52;;;;;;;8.10;5.13;;;;;;;;;;5062031;28;20513;-60
2021/06/11 13:41:30;;;;;;;11.10;5.67;;;;;;;;;;5055149;28;20663;-57
2021/06/11 13:44:13;;;;;;;9.07;4.67;;;;;;;;;;5071063;28;20446;-61
2021/06/11 13:46:42;;;;;;;7.87;5.00;;;;;;;;;;5067272;28;20460;-62
2021/06/11 13:49:09;;;;;;;6.03;4.20;;;;;;;;;;5066337;28;20484;-61
2021/06/11 13:51:41;;;;;;;9.83;3.70;;;;;;;;;;5053264;28;20447;-58
2021/06/11 13:54:08;;;;;;;11.23;4.77;;;;;;;;;;5061950;28;20505;-61
2021/06/11 13:56:39;;;;;;;6.40;4.37;;;;;;;;;;5060392;28;20500;-62
2021/06/11 13:59:11;;;;;;;11.57;4.70;;;;;;;;;;5059362;28;20505;-61
2021/06/11 14:01:56;;;;;;;6.17;4.30;;;;;;;;;;5060026;28;20495;-62
2021/06/11 14:04:37;;;;;;;7.73;4.33;;;;;;;;;;5050225;28;20561;-60
2021/06/11 14:07:05;;;;;;;12.80;4.60;;;;;;;;;;5056209;28;20449;-55
2021/06/11 14:09:32;;;;;;;4.93;2.90;;;;;;;;;;5061111;28;20445;-59
2021/06/11 14:12:09;;;;;;;13.70;4.43;;;;;;;;;;5060768;28;20446;-58
2021/06/11 14:14:37;;;;;;;7.83;4.37;;;;;;;;;;5061883;28;20488;-56
2021/06/11 14:17:04;;;;;;;9.23;3.10;;;;;;;;;;5058826;28;20445;-58
2021/06/11 14:19:32;;;;;;;9.00;4.20;;;;;;;;;;5059983;28;20470;-61
2021/06/11 14:21:59;;;;;;;8.23;3.87;;;;;;;;;;5064827;28;20457;-61
2021/06/11 14:24:27;;;;;;;10.73;4.40;;;;;;;;;;5058891;28;20496;-54
2021/06/11 14:26:59;;;;;;;7.07;3.63;;;;;;;;;;5064309;28;20529;-58
2021/06/11 14:29:41;;;;;;;6.83;3.50;;;;;;;;;;5058621;28;20457;-59
2021/06/11 14:34:47;;;;;;;7.77;3.10;;;;;;;;;;5058289;28;20506;-61
2021/06/11 14:40:30;;;;;;;4.90;3.27;;;;;;;;;;5066928;28;20453;-55
2021/06/11 14:43:08;;;;;;;9.70;3.17;;;;;;;;;;5057784;28;20757;-60
2021/06/11 14:45:38;;;;;;;8.67;3.30;;;;;;;;;;5059298;28;20683;-54
2021/06/11 14:48:07;;;;;;;6.23;3.40;;;;;;;;;;5065966;28;20468;-62
2021/06/11 14:53:59;;;;;;;6.27;3.73;;;;;;;;;;5064054;28;20496;-62
2021/06/11 14:56:36;;;;;;;7.20;4.30;;;;;;;;;;5057678;28;20543;-60
2021/06/11 14:59:09;;;;;;;6.03;4.07;;;;;;;;;;5068275;28;20483;-58
2021/06/11 15:01:49;;;;;;;5.80;3.50;;;;;;;;;;5071379;28;20744;-57
2021/06/11 15:04:21;;;;;;;7.83;4.13;;;;;;;;;;5066702;28;20445;-59
2021/06/11 15:06:54;;;;;;;5.50;3.70;;;;;;;;;;5060947;28;20477;-60
2021/06/11 15:09:22;;;;;;;17.83;11.10;;;;;;;;;;5067483;28;20461;-61
2021/06/11 15:11:49;;;;;;;7.40;3.50;;;;;;;;;;5069237;28;20470;-57
2021/06/11 15:14:18;;;;;;;7.60;4.00;;;;;;;;;;5068314;28;20491;-64
2021/06/11 15:16:48;;;;;;;10.70;3.60;;;;;;;;;;5063912;28;20479;-61
2021/06/11 15:22:23;;;;;;;7.90;4.60;;;;;;;;;;5066154;28;20449;-59
2021/06/11 15:24:55;;;;;;;8.90;5.37;;;;;;;;;;5053816;28;20453;-62
2021/06/11 15:27:22;;;;;;;5.43;3.53;;;;;;;;;;5059437;28;20449;-62
2021/06/11 15:30:03;;;;;;;6.77;4.20;;;;;;;;;;5059252;28;20527;-57
2021/06/11 15:32:31;;;;;;;8.33;3.80;;;;;;;;;;5066726;28;20450;-57
2021/06/11 15:35:11;;;;;;;6.30;3.40;;;;;;;;;;5066039;28;20476;-60
2021/06/11 15:37:45;;;;;;;8.20;3.80;;;;;;;;;;5070248;28;20483;-60
2021/06/11 15:40:15;;;;;;;8.03;3.90;;;;;;;;;;5064170;28;20468;-59
2021/06/11 15:42:44;;;;;;;5.83;3.80;;;;;;;;;;5064727;28;20461;-60